Time;durP1;ratioP1;P1;durP2;ratioP2;P2;SDS_P1;SDS_P2;PMS_P1;PMS_P2;Temp;Humidity;BMP_temperature;BMP_pressure;BME280_temperature;BME280_humidity;BME280_pressure;Samples;Min_cycle;Max_cycle;Signal;HPM_P1;HPM_P2
2021/12/29 00:00:27;;;;;;;19.75;8.30;;;1.50;99.90;;;;;;5027824;28;20736;-73
2021/12/29 00:02:55;;;;;;;20.67;10.18;;;1.50;99.90;;;;;;5050533;28;20233;-74
2021/12/29 00:05:22;;;;;;;16.15;8.10;;;1.50;99.90;;;;;;5050370;28;20524;-74
2021/12/29 00:07:48;;;;;;;18.02;9.30;;;1.40;99.90;;;;;;5050254;28;20186;-73
2021/12/29 00:10:15;;;;;;;22.48;10.02;;;1.40;99.90;;;;;;5063758;28;20184;-73
2021/12/29 00:12:46;;;;;;;21.40;9.27;;;1.30;99.90;;;;;;5070225;28;20165;-73
2021/12/29 00:15:14;;;;;;;22.95;9.43;;;1.30;99.90;;;;;;5059314;28;20220;-74
2021/12/29 00:17:42;;;;;;;18.90;9.77;;;1.20;99.90;;;;;;5050040;28;20146;-74
2021/12/29 00:20:10;;;;;;;26.25;10.82;;;1.20;99.90;;;;;;5049951;28;20166;-74
2021/12/29 00:22:36;;;;;;;23.13;9.60;;;1.20;99.90;;;;;;5049993;28;20153;-74
2021/12/29 00:25:03;;;;;;;26.85;10.25;;;1.30;99.90;;;;;;5049832;28;20204;-73
2021/12/29 00:27:29;;;;;;;21.90;10.25;;;1.30;99.90;;;;;;5048720;28;20180;-74
2021/12/29 00:29:55;;;;;;;29.77;10.65;;;1.20;99.90;;;;;;5048129;28;20249;-74
2021/12/29 00:32:21;;;;;;;20.55;9.15;;;1.10;99.90;;;;;;5049912;28;20643;-74
2021/12/29 00:34:47;;;;;;;25.75;9.82;;;1.00;99.90;;;;;;5049644;28;20194;-74
2021/12/29 00:37:13;;;;;;;22.35;9.52;;;1.00;99.90;;;;;;5049716;28;20189;-73
2021/12/29 00:39:39;;;;;;;22.55;9.75;;;1.00;99.90;;;;;;5048397;28;20196;-73
2021/12/29 00:42:05;;;;;;;19.33;10.68;;;1.00;99.90;;;;;;5048331;28;20166;-73
2021/12/29 00:44:33;;;;;;;21.80;9.63;;;0.90;99.90;;;;;;5049578;28;20216;-73
2021/12/29 00:46:59;;;;;;;16.52;9.07;;;0.80;99.90;;;;;;5049515;28;20160;-73
2021/12/29 00:49:33;;;;;;;21.67;9.70;;;0.70;99.90;;;;;;5049621;28;20149;-73
2021/12/29 00:52:00;;;;;;;19.15;9.75;;;0.70;99.90;;;;;;5049578;28;20180;-73
2021/12/29 00:54:27;;;;;;;21.75;10.18;;;0.60;99.90;;;;;;5049221;28;20185;-73
2021/12/29 00:56:53;;;;;;;17.42;9.15;;;0.60;99.90;;;;;;5048010;28;20258;-73
2021/12/29 00:59:19;;;;;;;24.02;9.60;;;0.60;99.90;;;;;;5048726;28;20154;-73
2021/12/29 01:01:48;;;;;;;24.00;10.15;;;0.60;99.90;;;;;;5029673;28;20162;-73
2021/12/29 01:04:14;;;;;;;20.90;9.40;;;0.70;99.90;;;;;;5029425;28;20225;-73
2021/12/29 01:06:40;;;;;;;24.80;9.52;;;0.70;99.90;;;;;;5011603;28;20174;-73
2021/12/29 01:09:06;;;;;;;16.73;8.75;;;0.60;99.90;;;;;;5029308;28;20170;-73
2021/12/29 01:11:32;;;;;;;20.88;8.48;;;0.50;99.90;;;;;;5029385;28;20196;-73
2021/12/29 01:13:58;;;;;;;26.23;9.10;;;0.40;99.90;;;;;;5029304;28;20217;-73
2021/12/29 01:19:09;;;;;;;13.50;7.43;;;0.40;99.90;;;;;;5029437;28;20184;-72
2021/12/29 01:21:36;;;;;;;24.13;9.05;;;0.30;99.90;;;;;;5029297;28;20195;-72
2021/12/29 01:24:03;;;;;;;24.70;9.65;;;0.20;99.90;;;;;;5029201;28;20150;-73
2021/12/29 01:26:29;;;;;;;10.10;6.95;;;0.20;99.90;;;;;;5029148;28;20165;-73
2021/12/29 01:28:55;;;;;;;22.00;8.95;;;0.20;99.90;;;;;;5029219;28;20226;-73
2021/12/29 01:31:21;;;;;;;24.33;9.20;;;0.20;99.90;;;;;;4995860;28;20205;-73
2021/12/29 01:33:48;;;;;;;21.60;10.38;;;0.20;99.90;;;;;;5009355;28;20548;-73
2021/12/29 01:36:14;;;;;;;22.08;9.18;;;0.20;99.90;;;;;;5009284;28;20364;-73
2021/12/29 01:38:40;;;;;;;28.73;10.57;;;0.20;99.90;;;;;;5009445;28;20159;-73
2021/12/29 01:41:05;;;;;;;28.17;9.73;;;0.30;99.90;;;;;;5009363;28;20151;-73
2021/12/29 01:43:32;;;;;;;23.15;10.93;;;0.40;99.90;;;;;;5009315;28;20159;-73
2021/12/29 01:45:57;;;;;;;30.13;9.25;;;0.50;99.90;;;;;;4991555;28;20369;-73
2021/12/29 01:48:23;;;;;;;24.95;11.00;;;0.60;99.90;;;;;;5009288;28;20158;-73
2021/12/29 01:50:51;;;;;;;22.00;10.82;;;0.80;99.90;;;;;;5009271;28;20163;-73
2021/12/29 01:53:26;;;;;;;29.92;11.05;;;0.90;99.90;;;;;;5009222;28;20524;-72
2021/12/29 01:55:52;;;;;;;67.45;11.80;;;0.80;99.90;;;;;;5009131;28;20206;-73
2021/12/29 01:58:20;;;;;;;41.85;10.32;;;0.90;99.90;;;;;;4991702;28;20198;-73
2021/12/29 02:00:47;;;;;;;38.33;11.63;;;0.90;99.90;;;;;;5008997;28;20221;-73
2021/12/29 02:03:13;;;;;;;35.38;9.75;;;1.00;99.90;;;;;;4991797;28;20162;-73
2021/12/29 02:05:41;;;;;;;39.33;11.10;;;1.00;99.90;;;;;;5010360;28;20652;-74
2021/12/29 02:08:08;;;;;;;30.58;10.32;;;1.00;99.90;;;;;;5013129;28;20159;-74
2021/12/29 02:10:43;;;;;;;45.50;10.98;;;1.00;99.90;;;;;;5029158;28;20173;-74
2021/12/29 02:13:10;;;;;;;47.08;11.55;;;1.00;99.90;;;;;;5032536;28;20158;-74
2021/12/29 02:15:37;;;;;;;29.27;8.95;;;1.00;99.90;;;;;;5032442;28;20193;-75
2021/12/29 02:18:12;;;;;;;27.20;10.90;;;1.00;99.90;;;;;;5032694;28;20151;-74
2021/12/29 02:20:38;;;;;;;38.15;12.18;;;1.00;99.90;;;;;;5032447;28;20248;-73
2021/12/29 02:23:16;;;;;;;59.65;13.35;;;1.00;99.90;;;;;;5032516;28;20193;-73
2021/12/29 02:25:49;;;;;;;66.78;14.05;;;1.10;99.90;;;;;;5032397;28;20667;-73
2021/12/29 02:28:42;;;;;;;53.65;9.80;;;1.10;99.90;;;;;;5032482;28;20189;-73
2021/12/29 02:31:08;;;;;;;48.55;11.48;;;1.20;99.90;;;;;;5032057;28;20185;-73
2021/12/29 02:33:35;;;;;;;37.80;10.45;;;1.10;99.90;;;;;;5032201;28;20174;-73
2021/12/29 02:36:03;;;;;;;70.45;13.10;;;1.20;99.90;;;;;;5032045;28;20281;-73
2021/12/29 02:38:35;;;;;;;36.60;10.45;;;1.20;99.90;;;;;;5032300;28;20540;-73
2021/12/29 02:41:07;;;;;;;94.80;13.75;;;1.20;99.90;;;;;;5032148;28;20154;-73
2021/12/29 02:43:37;;;;;;;52.10;11.00;;;1.20;99.90;;;;;;5014543;28;20185;-73
2021/12/29 02:46:11;;;;;;;64.07;10.63;;;1.20;99.90;;;;;;5031975;28;20201;-73
2021/12/29 02:48:40;;;;;;;52.80;11.07;;;1.20;99.90;;;;;;5032092;28;20162;-73
2021/12/29 02:51:08;;;;;;;49.22;10.40;;;1.10;99.90;;;;;;5032098;28;20162;-73
2021/12/29 02:53:35;;;;;;;76.50;10.63;;;1.10;99.90;;;;;;5031998;28;20225;-73
2021/12/29 02:56:02;;;;;;;30.10;10.27;;;1.20;99.90;;;;;;5031812;28;20565;-73
2021/12/29 02:58:28;;;;;;;40.92;9.70;;;1.10;99.90;;;;;;5031856;28;20162;-73
2021/12/29 03:00:56;;;;;;;60.65;11.15;;;1.20;99.90;;;;;;5037490;28;20255;-74
2021/12/29 03:03:25;;;;;;;71.70;11.43;;;1.00;99.90;;;;;;5051677;28;20166;-73
2021/12/29 03:05:53;;;;;;;46.40;11.55;;;1.00;99.90;;;;;;5051510;28;20189;-73
2021/12/29 03:08:21;;;;;;;40.08;11.25;;;1.10;99.90;;;;;;5050154;28;20191;-74
2021/12/29 03:10:52;;;;;;;63.53;12.85;;;1.10;99.90;;;;;;5069646;28;20634;-73
2021/12/29 03:13:23;;;;;;;47.53;9.95;;;1.10;99.90;;;;;;5071382;28;20153;-73
2021/12/29 03:15:50;;;;;;;34.03;8.30;;;1.10;99.90;;;;;;5071192;28;20200;-74
2021/12/29 03:18:16;;;;;;;40.70;8.65;;;1.00;99.90;;;;;;5071428;28;20211;-73
2021/12/29 03:20:42;;;;;;;42.33;11.27;;;1.10;99.90;;;;;;5055542;28;20219;-73
2021/12/29 03:23:09;;;;;;;22.23;9.50;;;0.90;99.90;;;;;;5051282;28;20165;-73
2021/12/29 03:25:35;;;;;;;52.65;10.00;;;0.90;99.90;;;;;;5051149;28;20208;-73
2021/12/29 03:28:01;;;;;;;16.27;7.68;;;0.90;99.90;;;;;;5051215;28;20211;-73
2021/12/29 03:30:32;;;;;;;54.45;10.73;;;0.90;99.90;;;;;;5051043;28;20182;-73
2021/12/29 03:33:05;;;;;;;35.40;8.57;;;0.90;99.90;;;;;;5051080;28;20212;-73
2021/12/29 03:35:37;;;;;;;21.30;8.60;;;0.90;99.90;;;;;;5051039;28;20193;-73
2021/12/29 03:38:06;;;;;;;46.35;8.77;;;1.00;99.90;;;;;;5050819;28;20248;-73
2021/12/29 03:40:35;;;;;;;45.00;9.15;;;0.80;99.90;;;;;;5050826;28;20176;-73
2021/12/29 03:43:03;;;;;;;45.22;8.05;;;0.80;99.90;;;;;;5050592;28;20154;-73
2021/12/29 03:45:30;;;;;;;31.58;9.00;;;0.90;99.90;;;;;;5050477;28;20254;-73
2021/12/29 03:47:55;;;;;;;40.92;9.15;;;0.90;99.90;;;;;;5049650;28;20166;-73
2021/12/29 03:50:21;;;;;;;21.95;8.77;;;0.80;99.90;;;;;;5050773;28;20169;-73
2021/12/29 03:52:47;;;;;;;23.10;8.95;;;0.70;99.90;;;;;;5050787;28;20204;-73
2021/12/29 03:55:13;;;;;;;42.33;9.27;;;0.70;99.90;;;;;;5050438;28;20185;-73
2021/12/29 03:57:41;;;;;;;18.55;8.32;;;0.80;99.90;;;;;;5050650;28;20195;-73
2021/12/29 04:00:13;;;;;;;37.33;9.43;;;0.70;99.90;;;;;;5043344;28;20246;-73
2021/12/29 04:02:40;;;;;;;22.08;8.27;;;0.60;99.90;;;;;;5030865;28;20158;-73
2021/12/29 04:05:08;;;;;;;18.83;8.57;;;0.60;99.90;;;;;;5030486;28;20193;-73
2021/12/29 04:07:33;;;;;;;17.05;8.05;;;0.60;99.90;;;;;;5030524;28;20162;-73
2021/12/29 04:09:59;;;;;;;15.50;8.25;;;0.60;99.90;;;;;;5030518;28;20189;-73
2021/12/29 04:12:25;;;;;;;22.65;9.00;;;0.70;99.90;;;;;;5030451;28;20654;-73
2021/12/29 04:14:51;;;;;;;15.82;8.30;;;0.70;99.90;;;;;;5030332;28;20705;-74
2021/12/29 04:17:24;;;;;;;31.88;12.30;;;0.70;99.90;;;;;;5030345;28;20212;-73
2021/12/29 04:22:33;;;;;;;28.05;8.90;;;0.60;99.90;;;;;;5030245;28;20531;-73
2021/12/29 04:24:59;;;;;;;18.45;8.48;;;0.60;99.90;;;;;;5012526;28;20236;-73
2021/12/29 04:27:26;;;;;;;30.35;9.68;;;0.70;99.90;;;;;;5030226;28;20164;-73
2021/12/29 04:29:52;;;;;;;44.30;10.18;;;0.80;99.90;;;;;;5029627;28;20268;-73
2021/12/29 04:32:19;;;;;;;48.20;11.10;;;0.90;99.90;;;;;;5028305;28;20219;-73
2021/12/29 04:34:45;;;;;;;31.58;11.10;;;0.90;99.90;;;;;;5017610;28;20205;-73
2021/12/29 04:37:11;;;;;;;40.60;10.90;;;0.90;99.90;;;;;;5010248;28;20199;-73
2021/12/29 04:39:37;;;;;;;22.20;10.07;;;0.90;99.90;;;;;;5010239;28;20210;-73
2021/12/29 04:42:03;;;;;;;47.00;10.85;;;1.00;99.90;;;;;;5010279;28;20246;-73
2021/12/29 04:44:29;;;;;;;18.85;8.85;;;1.00;99.90;;;;;;5010224;28;20225;-73
2021/12/29 04:46:57;;;;;;;27.15;9.70;;;1.00;99.90;;;;;;5010090;28;20167;-73
2021/12/29 04:49:27;;;;;;;31.23;9.50;;;1.10;99.90;;;;;;5010089;28;20162;-73
2021/12/29 04:52:03;;;;;;;28.98;9.13;;;1.00;99.90;;;;;;5010159;28;20159;-73
2021/12/29 04:54:31;;;;;;;23.38;9.20;;;1.00;99.90;;;;;;5009938;28;20194;-73
2021/12/29 04:56:57;;;;;;;20.00;8.98;;;1.00;99.90;;;;;;5009941;28;20217;-73
2021/12/29 04:59:24;;;;;;;35.88;9.73;;;0.90;99.90;;;;;;5009635;28;20159;-73
2021/12/29 05:01:50;;;;;;;17.17;7.93;;;0.90;99.90;;;;;;5009947;28;20269;-73
2021/12/29 05:04:22;;;;;;;22.90;8.38;;;0.90;99.90;;;;;;5009800;28;20178;-74
2021/12/29 05:09:35;;;;;;;18.50;9.10;;;0.90;99.90;;;;;;5017557;28;20180;-73
2021/12/29 05:12:01;;;;;;;31.23;9.18;;;1.00;99.90;;;;;;5029410;28;20172;-73
2021/12/29 05:14:30;;;;;;;28.55;9.55;;;0.90;99.90;;;;;;5029409;28;20194;-73
2021/12/29 05:16:56;;;;;;;20.73;8.07;;;0.80;99.90;;;;;;5029241;28;20213;-72
2021/12/29 05:19:22;;;;;;;31.77;9.68;;;0.90;99.90;;;;;;5029084;28;20174;-73
2021/12/29 05:21:48;;;;;;;23.42;9.13;;;0.90;99.90;;;;;;5029249;28;20607;-72
2021/12/29 05:24:14;;;;;;;36.03;9.38;;;0.90;99.90;;;;;;5029374;28;20169;-72
2021/12/29 05:26:40;;;;;;;22.02;8.32;;;0.90;99.90;;;;;;5029355;28;20173;-73
2021/12/29 05:29:06;;;;;;;22.88;9.10;;;0.90;99.90;;;;;;5029173;28;20169;-73
2021/12/29 05:31:32;;;;;;;37.53;10.15;;;0.80;99.90;;;;;;5029104;28;20193;-72
2021/12/29 05:33:58;;;;;;;25.27;9.25;;;0.80;99.90;;;;;;5023419;28;20269;-73
2021/12/29 05:36:24;;;;;;;26.02;8.82;;;0.80;99.90;;;;;;5029025;28;20206;-73
2021/12/29 05:38:53;;;;;;;15.65;8.35;;;0.80;99.90;;;;;;5029001;28;20222;-73
2021/12/29 05:41:20;;;;;;;24.05;9.45;;;0.80;99.90;;;;;;5028273;28;20516;-73
2021/12/29 05:43:46;;;;;;;21.02;7.88;;;0.80;99.90;;;;;;5029037;28;20173;-72
2021/12/29 05:46:13;;;;;;;29.05;10.63;;;0.80;99.90;;;;;;5029060;28;20193;-72
2021/12/29 05:48:38;;;;;;;20.90;8.90;;;0.80;99.90;;;;;;5028898;28;20194;-72
2021/12/29 05:51:04;;;;;;;21.73;9.68;;;0.80;99.90;;;;;;5029088;28;20173;-73
2021/12/29 05:53:30;;;;;;;19.05;8.40;;;0.80;99.90;;;;;;5029011;28;20162;-73
2021/12/29 05:55:56;;;;;;;18.58;8.52;;;0.80;99.90;;;;;;5028841;28;20201;-73
2021/12/29 05:58:22;;;;;;;19.00;8.25;;;0.70;99.90;;;;;;5028904;28;20159;-73
2021/12/29 06:00:48;;;;;;;32.33;9.18;;;0.80;99.90;;;;;;5028714;28;20248;-72
2021/12/29 06:03:15;;;;;;;13.82;8.25;;;0.80;99.90;;;;;;5011162;28;20166;-73
2021/12/29 06:05:41;;;;;;;23.95;9.30;;;0.70;99.90;;;;;;5028783;28;20243;-73
2021/12/29 06:08:07;;;;;;;15.73;9.40;;;0.80;99.90;;;;;;5028824;28;20169;-73
2021/12/29 06:10:34;;;;;;;39.90;9.27;;;1.00;99.90;;;;;;5011017;28;20174;-73
2021/12/29 06:13:00;;;;;;;17.15;7.85;;;0.90;99.90;;;;;;5028793;28;20166;-73
2021/12/29 06:15:26;;;;;;;20.48;9.18;;;0.80;99.90;;;;;;5028651;28;20277;-73
2021/12/29 06:17:52;;;;;;;19.23;9.07;;;0.90;99.90;;;;;;5028808;28;20532;-73
2021/12/29 06:20:19;;;;;;;19.73;8.25;;;0.90;99.90;;;;;;5028584;28;20162;-73
2021/12/29 06:22:45;;;;;;;18.55;9.32;;;0.80;99.90;;;;;;5028726;28;20158;-72
2021/12/29 06:25:14;;;;;;;18.95;9.40;;;0.80;99.90;;;;;;5028542;28;20202;-73
2021/12/29 06:27:41;;;;;;;23.48;9.43;;;1.00;99.90;;;;;;5028806;28;20170;-73
2021/12/29 06:30:10;;;;;;;18.90;10.02;;;0.90;99.90;;;;;;5028714;28;20166;-73
2021/12/29 06:32:38;;;;;;;18.10;8.88;;;0.80;99.90;;;;;;5028326;28;20193;-73
2021/12/29 06:35:05;;;;;;;26.08;10.00;;;0.80;99.90;;;;;;5028522;28;20217;-73
2021/12/29 06:37:32;;;;;;;20.55;8.98;;;0.80;99.90;;;;;;5028530;28;20210;-73
2021/12/29 06:39:58;;;;;;;18.55;8.65;;;0.80;99.90;;;;;;5028518;28;20197;-73
2021/12/29 06:42:24;;;;;;;20.25;9.75;;;0.90;99.90;;;;;;5028497;28;20167;-73
2021/12/29 06:44:50;;;;;;;15.18;7.70;;;0.80;99.90;;;;;;5028459;28;20206;-73
2021/12/29 06:47:16;;;;;;;21.20;8.10;;;0.80;99.90;;;;;;5010864;28;20186;-73
2021/12/29 06:49:43;;;;;;;17.17;7.97;;;0.90;99.90;;;;;;5028358;28;20174;-73
2021/12/29 06:52:10;;;;;;;23.58;10.30;;;0.90;99.90;;;;;;5030384;28;20173;-73
2021/12/29 06:54:36;;;;;;;31.02;13.15;;;0.90;99.90;;;;;;5031688;28;20194;-73
2021/12/29 06:57:04;;;;;;;22.70;10.52;;;0.70;99.90;;;;;;5031692;28;20216;-73
2021/12/29 06:59:30;;;;;;;28.23;12.80;;;0.70;99.90;;;;;;5031573;28;20151;-73
2021/12/29 07:01:56;;;;;;;26.60;10.88;;;0.70;99.90;;;;;;5030434;28;20261;-72
2021/12/29 07:04:23;;;;;;;21.20;10.82;;;0.60;99.90;;;;;;5031602;28;20213;-73
2021/12/29 07:06:50;;;;;;;25.35;9.95;;;0.60;99.90;;;;;;5031760;28;20158;-72
2021/12/29 07:09:17;;;;;;;24.48;12.30;;;0.70;99.90;;;;;;5031081;28;20177;-73
2021/12/29 07:11:43;;;;;;;30.05;11.95;;;0.60;99.90;;;;;;5031721;28;20167;-74
2021/12/29 07:14:09;;;;;;;23.17;9.65;;;0.60;99.90;;;;;;5031433;28;20162;-74
2021/12/29 07:16:38;;;;;;;27.98;11.00;;;0.60;99.90;;;;;;5031525;28;20185;-74
2021/12/29 07:19:05;;;;;;;26.77;9.35;;;0.60;99.90;;;;;;5031397;28;20155;-74
2021/12/29 07:21:31;;;;;;;23.33;11.10;;;0.60;99.90;;;;;;5031311;28;20155;-74
2021/12/29 07:23:57;;;;;;;29.48;11.18;;;0.80;99.90;;;;;;5031473;28;20158;-74
2021/12/29 07:26:24;;;;;;;25.65;9.80;;;0.90;99.90;;;;;;5030657;28;20217;-74
2021/12/29 07:28:52;;;;;;;20.85;9.70;;;0.80;99.90;;;;;;5031329;28;20615;-73
2021/12/29 07:31:19;;;;;;;20.88;10.55;;;0.80;99.90;;;;;;5026093;28;20241;-73
2021/12/29 07:33:46;;;;;;;22.02;11.20;;;1.00;99.90;;;;;;5009931;28;20190;-73
2021/12/29 07:36:12;;;;;;;22.33;10.80;;;1.10;99.90;;;;;;5011351;28;20679;-74
2021/12/29 07:38:41;;;;;;;26.58;11.80;;;1.10;99.90;;;;;;5030756;28;20225;-74
2021/12/29 07:41:09;;;;;;;28.67;11.85;;;1.20;99.90;;;;;;5031089;28;20165;-74
2021/12/29 07:43:36;;;;;;;25.70;11.52;;;1.20;99.90;;;;;;5030744;28;20165;-73
2021/12/29 07:46:03;;;;;;;22.08;12.10;;;1.20;99.90;;;;;;5030828;28;20223;-74
2021/12/29 07:48:30;;;;;;;28.98;11.18;;;1.10;99.90;;;;;;5030119;28;20173;-73
2021/12/29 07:50:58;;;;;;;34.50;11.88;;;1.10;99.90;;;;;;5011204;28;20167;-73
2021/12/29 07:53:24;;;;;;;43.08;12.15;;;1.10;99.90;;;;;;5011130;28;20189;-73
2021/12/29 07:55:50;;;;;;;41.13;11.05;;;1.10;99.90;;;;;;5011099;28;20202;-73
2021/12/29 07:58:16;;;;;;;29.90;11.75;;;1.00;99.90;;;;;;5010967;28;20205;-74
2021/12/29 08:00:44;;;;;;;41.17;12.95;;;1.00;99.90;;;;;;5022288;28;20757;-74
2021/12/29 08:03:14;;;;;;;65.50;13.07;;;0.90;99.90;;;;;;5029676;28;20159;-74
2021/12/29 08:05:41;;;;;;;25.85;11.35;;;0.90;99.90;;;;;;5030396;28;20254;-74
2021/12/29 08:08:07;;;;;;;26.75;11.90;;;1.00;99.90;;;;;;5030379;28;20595;-74
2021/12/29 08:10:34;;;;;;;28.55;10.80;;;1.30;99.90;;;;;;5046502;28;20165;-74
2021/12/29 08:13:01;;;;;;;53.75;12.95;;;1.60;99.90;;;;;;5050164;28;20527;-74
2021/12/29 08:15:27;;;;;;;38.47;11.18;;;1.70;99.90;;;;;;5050055;28;20185;-74
2021/12/29 08:17:53;;;;;;;28.38;12.43;;;1.70;99.90;;;;;;5050220;28;20161;-74
2021/12/29 08:20:21;;;;;;;48.63;13.73;;;1.70;99.90;;;;;;5019783;28;20162;-74
2021/12/29 08:22:47;;;;;;;64.03;13.13;;;1.60;99.90;;;;;;5030313;28;20150;-75
2021/12/29 08:25:13;;;;;;;52.58;12.48;;;1.70;99.90;;;;;;5030066;28;20200;-74
2021/12/29 08:27:39;;;;;;;43.65;12.88;;;1.70;99.90;;;;;;5030061;28;20192;-74
2021/12/29 08:30:07;;;;;;;41.83;13.75;;;1.80;99.90;;;;;;5012307;28;20197;-74
2021/12/29 08:32:33;;;;;;;42.30;15.10;;;2.10;99.90;;;;;;5029471;28;20177;-74
2021/12/29 08:34:59;;;;;;;56.50;16.63;;;2.30;99.90;;;;;;5024664;28;20209;-75
2021/12/29 08:37:25;;;;;;;106.55;18.30;;;2.30;99.90;;;;;;5010038;28;20258;-75
2021/12/29 08:39:51;;;;;;;36.75;12.38;;;1.80;99.90;;;;;;5019216;28;20215;-73
2021/12/29 08:42:17;;;;;;;45.35;14.90;;;2.10;99.90;;;;;;5029890;28;20158;-74
2021/12/29 08:44:43;;;;;;;58.72;15.57;;;2.30;99.90;;;;;;5029748;28;20210;-74
2021/12/29 08:47:09;;;;;;;31.98;13.45;;;2.20;99.90;;;;;;5029597;28;20166;-74
2021/12/29 08:49:36;;;;;;;43.47;14.32;;;2.20;99.90;;;;;;5029540;28;20154;-74
2021/12/29 08:52:02;;;;;;;35.17;13.93;;;2.30;99.90;;;;;;5029703;28;20189;-74
2021/12/29 08:54:28;;;;;;;35.33;13.90;;;2.20;99.90;;;;;;5029088;28;20197;-74
2021/12/29 08:56:54;;;;;;;30.15;13.88;;;2.40;99.90;;;;;;5009639;28;20202;-75
2021/12/29 08:59:21;;;;;;;32.47;14.63;;;2.30;99.90;;;;;;5011092;28;20692;-74
2021/12/29 09:01:48;;;;;;;38.88;15.90;;;2.30;99.90;;;;;;5008265;28;20560;-74
2021/12/29 09:04:14;;;;;;;45.10;16.25;;;2.50;99.90;;;;;;5013333;28;20186;-74
2021/12/29 09:06:40;;;;;;;40.03;14.95;;;2.80;99.90;;;;;;5021659;28;20186;-74
2021/12/29 09:09:08;;;;;;;40.35;16.15;;;3.10;99.90;;;;;;5007169;28;20196;-74
2021/12/29 09:11:34;;;;;;;41.75;18.05;;;3.20;99.90;;;;;;5016530;28;20177;-74
2021/12/29 09:14:00;;;;;;;38.42;15.50;;;3.20;99.90;;;;;;4995181;28;20285;-75
2021/12/29 09:16:29;;;;;;;34.85;15.43;;;3.10;99.90;;;;;;5023280;28;20206;-74
2021/12/29 09:18:55;;;;;;;39.33;16.58;;;2.90;99.90;;;;;;5018665;28;20178;-75
2021/12/29 09:21:21;;;;;;;40.80;16.65;;;2.90;99.90;;;;;;5029118;28;20543;-74
2021/12/29 09:23:47;;;;;;;33.92;16.38;;;3.10;99.90;;;;;;5012675;28;20167;-74
2021/12/29 09:26:15;;;;;;;36.90;15.20;;;3.20;99.90;;;;;;5025103;28;20198;-74
2021/12/29 09:28:45;;;;;;;31.42;16.38;;;3.30;99.90;;;;;;5016585;28;20170;-74
2021/12/29 09:31:13;;;;;;;32.53;14.88;;;3.40;99.90;;;;;;5029188;28;20532;-74
2021/12/29 09:33:40;;;;;;;41.75;16.88;;;3.40;99.90;;;;;;5029167;28;20190;-74
2021/12/29 09:36:07;;;;;;;31.67;13.20;;;3.40;99.90;;;;;;5029161;28;20568;-74
2021/12/29 09:38:35;;;;;;;34.08;15.15;;;3.60;99.90;;;;;;5028986;28;20150;-76
2021/12/29 09:41:06;;;;;;;31.92;15.27;;;3.70;99.90;;;;;;5029121;28;20158;-75
2021/12/29 09:43:32;;;;;;;43.28;18.70;;;3.60;99.90;;;;;;5028816;28;20172;-75
2021/12/29 09:45:59;;;;;;;42.72;17.77;;;3.50;99.90;;;;;;5029033;28;20638;-75
2021/12/29 09:48:25;;;;;;;48.72;22.15;;;3.60;99.90;;;;;;5011697;28;20208;-74
2021/12/29 09:50:51;;;;;;;51.92;20.92;;;3.70;99.90;;;;;;5024346;28;20194;-74
2021/12/29 09:53:19;;;;;;;45.13;19.60;;;3.80;99.90;;;;;;5009323;28;20151;-75
2021/12/29 09:55:46;;;;;;;47.92;19.70;;;3.80;99.90;;;;;;5007618;28;20202;-75
2021/12/29 09:58:13;;;;;;;39.15;17.58;;;4.00;99.90;;;;;;5028526;28;20191;-75
2021/12/29 10:00:43;;;;;;;49.72;21.05;;;4.20;99.90;;;;;;5028374;28;20210;-75
2021/12/29 10:03:15;;;;;;;53.17;22.73;;;4.40;99.90;;;;;;5028649;28;20213;-75
2021/12/29 10:05:43;;;;;;;72.20;30.40;;;5.40;99.90;;;;;;5028605;28;20204;-75
2021/12/29 10:08:28;;;;;;;68.22;31.85;;;6.70;99.90;;;;;;5028535;28;20158;-75
2021/12/29 10:11:04;;;;;;;58.20;28.17;;;7.90;99.90;;;;;;5028545;28;20288;-75
2021/12/29 10:13:33;;;;;;;60.95;31.17;;;8.60;99.90;;;;;;5028572;28;20162;-75
2021/12/29 10:16:11;;;;;;;63.38;30.60;;;9.40;99.90;;;;;;5028578;28;20186;-76
2021/12/29 10:18:43;;;;;;;60.20;29.13;;;10.30;99.90;;;;;;5028776;28;20158;-75
2021/12/29 10:21:22;;;;;;;60.85;28.58;;;10.30;99.90;;;;;;5009437;28;20203;-75
2021/12/29 10:23:52;;;;;;;66.38;30.67;;;10.80;99.90;;;;;;5008868;28;20173;-75
2021/12/29 10:26:24;;;;;;;58.00;26.90;;;11.30;99.90;;;;;;5009485;28;20163;-75
2021/12/29 10:28:54;;;;;;;60.70;27.98;;;11.60;99.90;;;;;;5012693;28;20163;-75
2021/12/29 10:31:32;;;;;;;52.63;25.63;;;12.10;99.90;;;;;;5014632;28;20170;-74
2021/12/29 10:34:02;;;;;;;52.78;25.60;;;12.20;99.90;;;;;;5015616;28;20186;-74
2021/12/29 10:36:41;;;;;;;54.45;25.35;;;12.20;99.90;;;;;;5012440;28;20182;-73
2021/12/29 10:39:10;;;;;;;53.17;26.35;;;12.60;99.90;;;;;;5012222;28;20201;-73
2021/12/29 10:41:50;;;;;;;60.10;26.52;;;12.60;99.90;;;;;;5012391;28;20159;-73
2021/12/29 10:44:24;;;;;;;49.15;25.33;;;13.10;99.90;;;;;;5012388;28;20159;-73
2021/12/29 10:46:52;;;;;;;39.13;21.48;;;13.30;99.90;;;;;;5012199;28;20162;-73
2021/12/29 10:49:18;;;;;;;40.58;21.08;;;13.00;99.90;;;;;;5011950;28;20190;-73
2021/12/29 10:51:46;;;;;;;41.63;23.17;;;13.20;99.90;;;;;;5012244;28;20655;-74
2021/12/29 10:54:19;;;;;;;47.60;22.85;;;13.00;99.90;;;;;;5012152;28;20183;-73
2021/12/29 10:57:07;;;;;;;49.47;24.17;;;13.10;99.90;;;;;;5011941;28;20297;-73
2021/12/29 10:59:41;;;;;;;53.45;25.70;;;13.60;99.90;;;;;;5011851;28;20222;-73
2021/12/29 11:02:11;;;;;;;41.65;22.58;;;14.30;99.90;;;;;;5011979;28;20170;-73
2021/12/29 11:04:37;;;;;;;43.25;21.77;;;14.50;99.90;;;;;;5011982;28;20202;-73
2021/12/29 11:07:05;;;;;;;48.13;24.10;;;13.90;99.90;;;;;;4994228;28;20208;-73
2021/12/29 11:09:34;;;;;;;49.95;24.23;;;13.50;99.90;;;;;;5019116;28;20244;-73
2021/12/29 11:12:09;;;;;;;45.00;21.85;;;13.80;99.90;;;;;;5030912;28;20169;-73
2021/12/29 11:14:42;;;;;;;44.08;22.40;;;13.50;99.90;;;;;;5031262;28;20173;-74
2021/12/29 11:17:15;;;;;;;41.72;21.27;;;12.70;99.90;;;;;;5031099;28;20268;-73
2021/12/29 11:19:56;;;;;;;38.15;21.35;;;12.30;99.90;;;;;;5023488;28;20198;-73
2021/12/29 11:22:28;;;;;;;36.00;20.92;;;11.90;99.90;;;;;;5030791;28;20170;-73
2021/12/29 11:25:04;;;;;;;37.25;21.08;;;12.10;99.90;;;;;;5030881;28;20193;-73
2021/12/29 11:27:32;;;;;;;34.33;20.58;;;12.30;99.90;;;;;;5013200;28;20178;-73
2021/12/29 11:30:03;;;;;;;37.13;20.50;;;12.90;99.90;;;;;;5013105;28;20221;-72
2021/12/29 11:32:32;;;;;;;38.78;20.92;;;12.80;99.90;;;;;;5009852;28;20590;-73
2021/12/29 11:35:03;;;;;;;36.55;18.35;;;12.80;99.90;;;;;;5011202;28;20170;-73
2021/12/29 11:37:30;;;;;;;31.98;19.10;;;12.60;99.90;;;;;;4992739;28;20206;-73
2021/12/29 11:39:56;;;;;;;31.25;18.65;;;13.30;99.90;;;;;;5010729;28;20656;-73
2021/12/29 11:42:22;;;;;;;31.02;19.10;;;13.50;99.90;;;;;;5002158;28;20561;-73
2021/12/29 11:44:48;;;;;;;33.65;18.05;;;13.50;99.90;;;;;;5012722;28;20182;-72
2021/12/29 11:47:14;;;;;;;34.35;18.38;;;13.60;99.90;;;;;;5030645;28;20167;-72
2021/12/29 11:49:40;;;;;;;31.25;17.92;;;13.50;99.90;;;;;;5030520;28;20638;-72
2021/12/29 11:52:09;;;;;;;27.98;17.30;;;13.30;99.90;;;;;;5030689;28;20162;-73
2021/12/29 11:54:58;;;;;;;28.77;17.13;;;12.90;99.90;;;;;;5030604;28;20169;-73
2021/12/29 11:57:27;;;;;;;32.97;19.33;;;13.20;99.90;;;;;;5030638;28;20198;-72
2021/12/29 12:00:05;;;;;;;34.10;18.60;;;13.50;99.90;;;;;;5029863;28;20217;-72
2021/12/29 12:02:30;;;;;;;29.90;17.88;;;13.30;99.90;;;;;;5010701;28;20206;-73
2021/12/29 12:05:33;;;;;;;31.50;18.30;;;14.00;99.90;;;;;;5010757;28;20163;-73
2021/12/29 12:08:23;;;;;;;34.63;16.90;;;13.80;99.90;;;;;;5010374;28;20150;-73
2021/12/29 12:10:49;;;;;;;34.17;18.60;;;13.70;99.90;;;;;;5028626;28;20567;-72
2021/12/29 12:13:24;;;;;;;29.00;17.48;;;13.80;99.90;;;;;;5029900;28;20166;-73
2021/12/29 12:15:51;;;;;;;25.23;15.45;;;14.00;99.90;;;;;;5029871;28;20164;-73
2021/12/29 12:18:17;;;;;;;27.25;15.85;;;13.40;99.90;;;;;;5030088;28;20155;-72
2021/12/29 12:20:49;;;;;;;25.95;16.73;;;12.80;99.90;;;;;;5029945;28;20205;-72
2021/12/29 12:23:29;;;;;;;23.73;14.60;;;12.80;99.90;;;;;;5030050;28;20181;-73
2021/12/29 12:26:10;;;;;;;22.92;12.90;;;12.30;99.90;;;;;;5012187;28;20201;-73
2021/12/29 12:28:48;;;;;;;24.30;14.32;;;12.30;99.90;;;;;;5030067;28;20261;-72
2021/12/29 12:31:28;;;;;;;17.27;12.52;;;12.30;99.90;;;;;;5029887;28;20154;-72
2021/12/29 12:34:06;;;;;;;19.33;11.07;;;11.80;99.90;;;;;;5018247;28;20185;-72
2021/12/29 12:36:33;;;;;;;17.05;11.32;;;10.50;99.90;;;;;;5029583;28;20205;-73
2021/12/29 12:39:25;;;;;;;19.65;11.75;;;9.60;99.90;;;;;;5029678;28;20190;-72
2021/12/29 12:41:53;;;;;;;26.35;12.27;;;9.00;99.90;;;;;;5026212;28;20186;-72
2021/12/29 12:44:35;;;;;;;25.63;12.55;;;8.90;99.90;;;;;;5011920;28;20168;-73
2021/12/29 12:47:13;;;;;;;18.90;11.65;;;8.60;99.90;;;;;;5029389;28;20162;-73
2021/12/29 12:49:53;;;;;;;36.08;13.27;;;8.10;99.90;;;;;;5027925;28;20197;-73
2021/12/29 12:52:23;;;;;;;23.45;12.88;;;8.10;99.90;;;;;;5010890;28;20162;-73